Time;durP1;ratioP1;P1;durP2;ratioP2;P2;SDS_P1;SDS_P2;PMS_P1;PMS_P2;Temp;Humidity;BMP_temperature;BMP_pressure;BME280_temperature;BME280_humidity;BME280_pressure;Samples;Min_cycle;Max_cycle;Signal;HPM_P1;HPM_P2
2023/06/05 00:01:54;;;;;;;5.93;2.60;;;;;;;14.79;100.00;102126.47;5271584;28;20109;-78
2023/06/05 00:04:25;;;;;;;5.03;3.00;;;;;;;14.70;100.00;102130.81;5265983;28;20477;-78
2023/06/05 00:06:57;;;;;;;6.38;3.40;;;;;;;14.61;100.00;102125.44;5265722;28;20021;-79
2023/06/05 00:09:28;;;;;;;7.45;2.97;;;;;;;14.61;100.00;102134.34;5265021;28;20143;-79
2023/06/05 00:11:59;;;;;;;7.60;3.13;;;;;;;14.61;100.00;102130.81;5266200;28;20241;-75
2023/06/05 00:14:31;;;;;;;6.95;3.25;;;;;;;14.53;100.00;102140.38;5268709;28;20071;-77
2023/06/05 00:17:03;;;;;;;6.85;3.25;;;;;;;14.46;100.00;102135.69;5274739;28;20036;-79
2023/06/05 00:19:34;;;;;;;4.88;2.78;;;;;;;14.41;100.00;102132.53;5270095;28;20615;-78
2023/06/05 00:22:05;;;;;;;4.95;2.70;;;;;;;14.38;100.00;102129.16;5269602;28;20097;-79
2023/06/05 00:24:39;;;;;;;6.32;2.90;;;;;;;14.39;100.00;102132.69;5266669;28;20033;-79
2023/06/05 00:27:10;;;;;;;6.03;3.20;;;;;;;14.31;100.00;102132.53;5266471;28;20035;-79
2023/06/05 00:29:42;;;;;;;6.55;3.17;;;;;;;14.27;100.00;102126.59;5267017;28;20624;-79
2023/06/05 00:32:13;;;;;;;4.50;3.08;;;;;;;14.19;100.00;102132.59;5266415;28;20489;-78
2023/06/05 00:34:44;;;;;;;8.20;3.97;;;;;;;14.12;100.00;102131.44;5273345;28;20028;-78
2023/06/05 00:37:16;;;;;;;6.85;3.50;;;;;;;14.15;100.00;102127.66;5270328;28;20145;-80
2023/06/05 00:39:47;;;;;;;6.47;3.78;;;;;;;13.99;100.00;102128.16;5268795;28;20603;-78
2023/06/05 00:42:18;;;;;;;6.07;2.83;;;;;;;14.00;100.00;102121.78;5265490;28;20043;-78
2023/06/05 00:44:50;;;;;;;5.25;3.65;;;;;;;13.94;100.00;102125.03;5263839;28;20028;-76
2023/06/05 00:47:22;;;;;;;5.25;3.20;;;;;;;13.94;100.00;102125.88;5267825;28;20078;-76
2023/06/05 00:49:53;;;;;;;4.55;3.30;;;;;;;13.88;100.00;102125.53;5273191;28;20093;-78
2023/06/05 00:52:26;;;;;;;5.53;3.55;;;;;;;13.83;100.00;102125.09;5265179;28;20032;-77
2023/06/05 00:54:58;;;;;;;5.97;3.60;;;;;;;13.77;100.00;102132.69;5269885;28;20478;-78
2023/06/05 00:57:29;;;;;;;6.25;3.60;;;;;;;13.76;100.00;102127.44;5265267;28;20059;-75
2023/06/05 01:00:02;;;;;;;7.53;3.15;;;;;;;13.73;100.00;102130.41;5262397;28;20050;-78
2023/06/05 01:02:35;;;;;;;10.20;3.95;;;;;;;13.71;100.00;102135.03;5266038;28;20035;-79
2023/06/05 01:05:07;;;;;;;7.18;3.38;;;;;;;13.66;100.00;102124.72;5266964;28;20366;-78
2023/06/05 01:07:39;;;;;;;4.93;3.60;;;;;;;13.64;100.00;102125.81;5265133;28;20028;-78
2023/06/05 01:10:11;;;;;;;4.40;3.15;;;;;;;13.58;100.00;102124.50;5268648;28;20776;-76
2023/06/05 01:12:42;;;;;;;8.20;3.70;;;;;;;13.54;100.00;102131.13;5266467;28;20085;-75
2023/06/05 01:15:15;;;;;;;11.00;3.55;;;;;;;13.53;100.00;102119.53;5266356;28;20074;-77
2023/06/05 01:17:47;;;;;;;6.50;3.97;;;;;;;13.45;100.00;102115.81;5269662;28;20046;-80
2023/06/05 01:20:20;;;;;;;7.72;3.58;;;;;;;13.41;100.00;102120.56;5266832;28;20413;-77
2023/06/05 01:22:52;;;;;;;7.10;3.75;;;;;;;13.40;100.00;102116.22;5263636;28;20029;-76
2023/06/05 01:25:23;;;;;;;8.45;4.50;;;;;;;13.32;100.00;102111.50;5271865;28;20039;-78
2023/06/05 01:28:00;;;;;;;6.25;3.67;;;;;;;13.30;100.00;102124.13;5264241;28;20068;-78
2023/06/05 01:30:46;;;;;;;5.85;3.45;;;;;;;13.35;100.00;102121.13;5265753;28;20269;-78
2023/06/05 01:33:26;;;;;;;8.57;3.85;;;;;;;13.26;100.00;102114.66;5267135;28;20531;-79
2023/06/05 01:36:04;;;;;;;7.72;4.55;;;;;;;13.24;100.00;102122.81;5268759;28;20461;-77
2023/06/05 01:38:36;;;;;;;5.18;3.78;;;;;;;13.12;100.00;102115.81;5268616;28;20035;-78
2023/06/05 01:41:10;;;;;;;5.53;3.63;;;;;;;13.13;100.00;102124.69;5271182;28;20032;-79
2023/06/05 01:43:44;;;;;;;7.10;4.38;;;;;;;13.05;100.00;102117.31;5267910;28;20032;-79
2023/06/05 01:46:18;;;;;;;6.30;3.83;;;;;;;12.99;100.00;102107.97;5272629;28;20486;-79
2023/06/05 01:48:51;;;;;;;5.70;4.53;;;;;;;13.00;100.00;102111.50;5268859;28;20035;-77
2023/06/05 01:51:22;;;;;;;7.32;4.47;;;;;;;12.96;100.00;102107.38;5264039;28;20035;-77
2023/06/05 01:53:53;;;;;;;10.75;4.63;;;;;;;12.98;100.00;102105.41;5265185;28;20056;-77
2023/06/05 01:56:25;;;;;;;7.28;4.03;;;;;;;12.93;100.00;102112.97;5264492;28;20060;-78
2023/06/05 01:58:56;;;;;;;5.65;4.13;;;;;;;12.93;100.00;102099.59;5261728;28;20029;-76
2023/06/05 02:01:28;;;;;;;7.13;4.55;;;;;;;12.81;100.00;102099.59;5262167;28;20155;-77
2023/06/05 02:04:04;;;;;;;5.80;4.47;;;;;;;12.71;100.00;102090.66;5263609;28;20036;-78
2023/06/05 02:06:43;;;;;;;7.72;5.10;;;;;;;12.75;100.00;102092.09;5265721;28;20449;-78
2023/06/05 02:09:14;;;;;;;7.32;4.70;;;;;;;12.67;100.00;102092.75;5262854;28;20233;-77
2023/06/05 02:11:47;;;;;;;6.53;4.63;;;;;;;12.67;100.00;102097.22;5269138;28;20029;-73
2023/06/05 02:14:20;;;;;;;7.20;5.00;;;;;;;12.60;100.00;102088.00;5263035;28;20033;-75
2023/06/05 02:16:51;;;;;;;6.80;4.63;;;;;;;12.57;100.00;102099.81;5264150;28;20024;-74
2023/06/05 02:19:22;;;;;;;6.50;4.57;;;;;;;12.57;100.00;102094.47;5264331;28;20060;-76
2023/06/05 02:21:54;;;;;;;7.30;4.75;;;;;;;12.60;100.00;102091.50;5269556;28;20407;-76
2023/06/05 02:24:26;;;;;;;11.02;5.25;;;;;;;12.57;100.00;102091.78;5264774;28;20572;-75
2023/06/05 02:26:57;;;;;;;7.28;5.03;;;;;;;12.48;100.00;102093.38;5264952;28;20111;-76
2023/06/05 02:29:28;;;;;;;6.18;4.70;;;;;;;12.44;100.00;102089.22;5268421;28;20044;-74
2023/06/05 02:32:00;;;;;;;7.72;5.00;;;;;;;12.46;100.00;102087.31;5263590;28;20060;-75
2023/06/05 02:34:32;;;;;;;9.23;5.55;;;;;;;12.37;100.00;102097.88;5264956;28;20060;-75
2023/06/05 02:37:03;;;;;;;7.78;5.35;;;;;;;12.38;100.00;102092.41;5266400;28;20028;-75
2023/06/05 02:39:35;;;;;;;6.10;5.15;;;;;;;12.28;100.00;102086.09;5267440;28;20047;-77
2023/06/05 02:42:08;;;;;;;8.48;5.78;;;;;;;12.25;100.00;102089.88;5262797;28;20498;-79
2023/06/05 02:44:39;;;;;;;8.35;5.47;;;;;;;12.15;100.00;102086.25;5269076;28;20463;-80
2023/06/05 02:47:11;;;;;;;6.10;5.43;;;;;;;12.17;100.00;102083.44;5265643;28;20024;-78
2023/06/05 02:49:42;;;;;;;11.43;6.05;;;;;;;12.17;100.00;102086.97;5255000;28;20055;-78
2023/06/05 02:52:14;;;;;;;9.48;5.88;;;;;;;12.15;100.00;102083.56;5264660;28;20081;-78
2023/06/05 02:54:45;;;;;;;10.27;6.28;;;;;;;12.10;100.00;102080.41;5265884;28;20036;-76
2023/06/05 02:57:17;;;;;;;11.15;5.95;;;;;;;12.13;100.00;102085.50;5261206;28;20033;-77
2023/06/05 02:59:48;;;;;;;8.23;5.78;;;;;;;11.99;100.00;102078.59;5262587;28;20075;-77
2023/06/05 03:02:20;;;;;;;13.00;5.85;;;;;;;12.07;100.00;102081.50;5261352;28;20028;-78
2023/06/05 03:04:53;;;;;;;6.55;5.70;;;;;;;12.02;100.00;102077.47;5273864;28;20028;-78
2023/06/05 03:07:24;;;;;;;7.90;5.70;;;;;;;11.98;100.00;102081.38;5263165;28;20517;-77
2023/06/05 03:09:55;;;;;;;7.93;5.47;;;;;;;11.95;100.00;102079.78;5262376;28;20121;-79
2023/06/05 03:12:26;;;;;;;10.07;5.97;;;;;;;11.86;100.00;102077.81;5270849;28;20441;-76
2023/06/05 03:14:58;;;;;;;9.13;6.13;;;;;;;11.82;100.00;102085.22;5273033;28;20819;-76
2023/06/05 03:17:30;;;;;;;8.73;5.72;;;;;;;11.87;100.00;102084.88;5266938;28;20036;-77
2023/06/05 03:20:01;;;;;;;7.90;6.30;;;;;;;11.74;100.00;102079.63;5267539;28;20028;-76
2023/06/05 03:22:34;;;;;;;10.88;6.25;;;;;;;11.69;100.00;102077.31;5278624;28;20085;-76
2023/06/05 03:25:06;;;;;;;11.95;6.53;;;;;;;11.73;100.00;102075.25;5267336;28;20570;-78
2023/06/05 03:27:37;;;;;;;9.10;6.40;;;;;;;11.60;100.00;102072.69;5267191;28;20135;-77
2023/06/05 03:30:09;;;;;;;7.35;6.32;;;;;;;11.61;100.00;102074.38;5265837;28;20035;-78
2023/06/05 03:32:40;;;;;;;11.50;6.93;;;;;;;11.63;100.00;102068.94;5272282;28;20060;-76
2023/06/05 03:35:11;;;;;;;11.82;8.45;;;;;;;11.64;100.00;102071.50;5274854;28;20081;-76
2023/06/05 03:37:43;;;;;;;11.52;7.28;;;;;;;11.63;100.00;102061.75;5274323;28;20639;-72
2023/06/05 03:40:14;;;;;;;9.40;7.05;;;;;;;11.61;100.00;102063.69;5268052;28;20024;-71
2023/06/05 03:42:45;;;;;;;10.05;6.90;;;;;;;11.58;100.00;102068.44;5270188;28;20062;-70
2023/06/05 03:45:18;;;;;;;9.95;7.25;;;;;;;11.59;100.00;102062.09;5275087;28;20039;-71
2023/06/05 03:47:49;;;;;;;9.98;6.60;;;;;;;11.53;100.00;102066.09;5269166;28;20020;-71
2023/06/05 03:50:21;;;;;;;7.50;6.70;;;;;;;11.50;100.00;102066.34;5271586;28;20490;-70
2023/06/05 03:52:52;;;;;;;11.68;7.68;;;;;;;11.58;100.00;102071.94;5265451;28;20440;-72
2023/06/05 03:55:23;;;;;;;9.93;7.43;;;;;;;11.59;100.00;102070.13;5270623;28;20317;-71
2023/06/05 03:57:56;;;;;;;8.65;6.90;;;;;;;11.60;100.00;102074.50;5273118;28;20050;-71
2023/06/05 04:00:28;;;;;;;11.32;6.80;;;;;;;11.65;100.00;102069.66;5276078;28;20359;-71
2023/06/05 04:02:59;;;;;;;8.70;6.85;;;;;;;11.63;100.00;102077.78;5269094;28;20021;-70
2023/06/05 04:05:31;;;;;;;10.02;7.32;;;;;;;11.59;100.00;102071.00;5276039;28;20099;-71
2023/06/05 04:08:03;;;;;;;11.73;7.28;;;;;;;11.58;100.00;102077.28;5275189;28;20024;-71
2023/06/05 04:10:38;;;;;;;9.68;7.22;;;;;;;11.61;100.00;102078.91;5271765;28;20440;-71
2023/06/05 04:13:10;;;;;;;9.27;6.90;;;;;;;11.60;100.00;102078.03;5270436;28;20039;-71
2023/06/05 04:15:41;;;;;;;10.27;7.82;;;;;;;11.63;100.00;102074.28;5268266;28;20025;-71
2023/06/05 04:18:13;;;;;;;9.38;7.18;;;;;;;11.65;100.00;102072.31;5273241;28;20028;-71
2023/06/05 04:20:44;;;;;;;9.57;7.47;;;;;;;11.65;100.00;102077.69;5269881;28;20838;-71
2023/06/05 04:23:15;;;;;;;8.95;7.45;;;;;;;11.66;100.00;102074.03;5267500;28;20425;-71
2023/06/05 04:25:49;;;;;;;12.02;8.02;;;;;;;11.60;100.00;102082.53;5274473;28;20024;-71
2023/06/05 04:28:22;;;;;;;11.80;7.97;;;;;;;11.59;100.00;102086.16;5266568;28;20032;-71
2023/06/05 04:30:55;;;;;;;14.52;8.52;;;;;;;11.64;100.00;102084.84;5272354;28;20440;-71
2023/06/05 04:33:26;;;;;;;14.05;8.68;;;;;;;11.67;100.00;102089.94;5273108;28;20031;-70
2023/06/05 04:35:58;;;;;;;11.20;8.45;;;;;;;11.74;100.00;102087.63;5265516;28;20040;-71
2023/06/05 04:38:29;;;;;;;11.50;8.02;;;;;;;11.70;100.00;102088.84;5270912;28;20111;-71
2023/06/05 04:41:01;;;;;;;10.68;8.43;;;;;;;11.72;100.00;102082.41;5273502;28;20482;-72
2023/06/05 04:43:32;;;;;;;11.05;8.88;;;;;;;11.78;100.00;102090.91;5270428;28;20408;-71
2023/06/05 04:46:03;;;;;;;13.07;8.38;;;;;;;11.76;100.00;102091.03;5269696;28;20028;-72
2023/06/05 04:48:36;;;;;;;10.15;8.65;;;;;;;11.81;100.00;102094.19;5268978;28;20815;-71
2023/06/05 04:51:07;;;;;;;10.55;8.65;;;;;;;11.82;100.00;102100.44;5268515;28;20485;-71
2023/06/05 04:53:41;;;;;;;10.15;8.77;;;;;;;11.85;100.00;102098.34;5268626;28;20037;-71
2023/06/05 04:56:12;;;;;;;10.10;8.68;;;;;;;11.89;100.00;102104.31;5266059;28;20087;-71
2023/06/05 04:58:44;;;;;;;10.85;8.65;;;;;;;11.83;100.00;102094.09;5269809;28;20028;-71
2023/06/05 05:01:16;;;;;;;11.75;9.05;;;;;;;11.95;100.00;102098.50;5265773;28;20028;-71
2023/06/05 05:03:48;;;;;;;12.27;9.35;;;;;;;11.89;100.00;102098.97;5270002;28;20024;-70
2023/06/05 05:06:19;;;;;;;11.30;8.43;;;;;;;12.02;100.00;102101.56;5270524;28;20085;-70
2023/06/05 05:08:51;;;;;;;11.82;9.38;;;;;;;11.97;100.00;102096.56;5265410;28;20025;-69
2023/06/05 05:11:22;;;;;;;12.55;10.05;;;;;;;12.04;100.00;102092.44;5267151;28;20024;-71
2023/06/05 05:13:53;;;;;;;11.55;9.30;;;;;;;12.10;100.00;102097.31;5268790;28;20027;-70
2023/06/05 05:16:25;;;;;;;14.52;9.80;;;;;;;12.06;100.00;102090.50;5264618;28;20043;-71
2023/06/05 05:18:56;;;;;;;12.10;9.90;;;;;;;12.20;100.00;102086.72;5271281;28;20021;-71
2023/06/05 05:21:27;;;;;;;10.10;9.10;;;;;;;12.21;100.00;102096.44;5266622;28;20031;-70
2023/06/05 05:24:00;;;;;;;14.13;10.13;;;;;;;12.26;100.00;102094.25;5266144;28;20024;-70
2023/06/05 05:26:31;;;;;;;15.90;10.52;;;;;;;12.29;100.00;102093.16;5264552;28;20578;-71
2023/06/05 05:29:02;;;;;;;11.73;9.70;;;;;;;12.40;100.00;102095.81;5273716;28;20032;-71
2023/06/05 05:31:34;;;;;;;16.90;9.90;;;;;;;12.42;100.00;102093.88;5273399;28;20136;-70
2023/06/05 05:34:06;;;;;;;13.27;10.32;;;;;;;12.40;100.00;102095.81;5265204;28;20090;-73
2023/06/05 05:36:37;;;;;;;12.40;10.00;;;;;;;12.41;100.00;102089.50;5272426;28;20036;-71
2023/06/05 05:39:09;;;;;;;13.27;9.45;;;;;;;12.54;100.00;102097.38;5273352;28;20037;-72
2023/06/05 05:41:41;;;;;;;16.70;10.70;;;;;;;12.57;100.00;102086.44;5270687;28;20386;-72
2023/06/05 05:44:12;;;;;;;11.98;9.45;;;;;;;12.49;100.00;102088.88;5272066;28;20335;-71
2023/06/05 05:46:46;;;;;;;13.57;10.10;;;;;;;12.62;100.00;102084.22;5268526;28;20024;-70
2023/06/05 05:49:17;;;;;;;13.15;10.45;;;;;;;12.65;100.00;102088.47;5264536;28;20035;-73
2023/06/05 05:51:50;;;;;;;12.50;10.20;;;;;;;12.64;100.00;102084.06;5262078;28;20439;-72
2023/06/05 05:54:26;;;;;;;15.60;10.10;;;;;;;12.66;100.00;102091.03;5282064;28;20032;-71
2023/06/05 05:56:57;;;;;;;;;;;;;;;12.90;100.00;102092.63;5273020;28;20117;-72
2023/06/05 05:59:29;;;;;;;12.10;10.10;;;;;;;12.87;100.00;102092.91;5266570;28;19916;-71
2023/06/05 06:02:08;;;;;;;12.23;10.38;;;;;;;12.85;100.00;102095.72;5265274;28;20887;-71
2023/06/05 06:04:40;;;;;;;12.30;10.57;;;;;;;12.99;100.00;102099.94;5266924;28;20216;-71
2023/06/05 06:07:11;;;;;;;13.55;10.68;;;;;;;12.92;100.00;102105.91;5265813;28;20478;-71
2023/06/05 06:09:44;;;;;;;15.55;11.27;;;;;;;13.09;100.00;102113.38;5265725;28;20033;-70
2023/06/05 06:12:16;;;;;;;13.63;10.25;;;;;;;13.18;100.00;102103.72;5274267;28;20035;-72
2023/06/05 06:14:48;;;;;;;11.98;10.38;;;;;;;13.36;100.00;102115.63;5273853;28;20339;-70
2023/06/05 06:17:19;;;;;;;14.15;10.57;;;;;;;13.54;100.00;102112.38;5265810;28;20028;-72
2023/06/05 06:19:51;;;;;;;13.52;11.25;;;;;;;13.78;100.00;102112.09;5274709;28;20050;-71
2023/06/05 06:22:22;;;;;;;12.48;10.85;;;;;;;13.96;100.00;102112.31;5272565;28;20090;-71
2023/06/05 06:24:53;;;;;;;11.75;9.52;;;;;;;14.15;100.00;102103.53;5265230;28;20021;-71
2023/06/05 06:27:25;;;;;;;13.85;10.85;;;;;;;14.30;100.00;102104.81;5265004;28;20397;-70
2023/06/05 06:29:56;;;;;;;14.70;9.90;;;;;;;14.50;100.00;102112.97;5268405;28;20025;-70
2023/06/05 06:32:28;;;;;;;10.85;9.70;;;;;;;14.74;100.00;102110.78;5275208;28;20060;-71
2023/06/05 06:34:59;;;;;;;13.63;10.60;;;;;;;14.92;100.00;102108.25;5271870;28;20382;-71
2023/06/05 06:37:30;;;;;;;11.60;10.40;;;;;;;15.11;100.00;102115.47;5264760;28;20024;-71
2023/06/05 06:40:06;;;;;;;13.45;10.38;;;;;;;15.35;100.00;102113.34;5264992;28;20024;-71
2023/06/05 06:42:38;;;;;;;13.68;10.32;;;;;;;15.52;100.00;102109.09;5267875;28;20040;-73
2023/06/05 06:45:10;;;;;;;13.60;10.15;;;;;;;15.70;100.00;102107.34;5272211;28;20056;-72
2023/06/05 06:47:42;;;;;;;13.45;10.48;;;;;;;15.80;100.00;102113.56;5268397;28;20025;-79
2023/06/05 06:50:26;;;;;;;13.30;10.32;;;;;;;16.09;100.00;102117.16;5275960;28;20532;-84
2023/06/05 06:52:57;;;;;;;15.25;10.45;;;;;;;16.29;100.00;102115.25;5264642;28;20032;-83
2023/06/05 06:55:32;;;;;;;11.93;9.73;;;;;;;16.62;100.00;102114.63;5276151;28;20035;-84
2023/06/05 06:58:07;;;;;;;13.10;10.13;;;;;;;16.88;100.00;102124.66;5272024;28;20063;-85
2023/06/05 07:00:40;;;;;;;12.75;9.63;;;;;;;17.02;100.00;102120.59;5273194;28;20971;-84
2023/06/05 07:03:11;;;;;;;11.05;9.48;;;;;;;17.18;100.00;102122.59;5270250;28;20713;-86
2023/06/05 07:05:52;;;;;;;11.32;10.20;;;;;;;17.32;100.00;102122.06;5271317;28;20107;-85
2023/06/05 07:08:24;;;;;;;12.05;9.30;;;;;;;17.42;100.00;102126.53;5272732;28;20086;-85
2023/06/05 07:10:55;;;;;;;10.88;9.45;;;;;;;17.72;100.00;102119.81;5277901;28;20139;-84
2023/06/05 07:13:27;;;;;;;11.48;9.38;;;;;;;17.94;100.00;102124.72;5275812;28;20111;-85
2023/06/05 07:15:58;;;;;;;11.95;9.38;;;;;;;17.93;100.00;102125.75;5273184;28;20078;-86
2023/06/05 07:18:30;;;;;;;12.65;9.48;;;;;;;18.26;100.00;102133.16;5272419;28;20139;-88
2023/06/05 07:21:04;;;;;;;11.95;8.90;;;;;;;18.40;100.00;102132.53;5273965;28;20032;-86
2023/06/05 07:23:39;;;;;;;10.88;8.88;;;;;;;18.26;100.00;102127.75;5273939;28;20062;-89
2023/06/05 07:26:12;;;;;;;11.00;9.75;;;;;;;18.46;100.00;102126.50;5280106;28;20029;-87
2023/06/05 07:28:44;;;;;;;11.63;9.05;;;;;;;18.61;100.00;102131.25;5273449;28;20036;-86
2023/06/05 07:31:21;;;;;;;10.77;9.65;;;;;;;18.75;100.00;102127.91;5273639;28;20028;-87
2023/06/05 07:33:52;;;;;;;10.38;9.15;;;;;;;18.87;100.00;102129.31;5278679;28;20043;-86
2023/06/05 07:36:24;;;;;;;9.63;8.32;;;;;;;19.07;100.00;102131.72;5278322;28;20032;-87
2023/06/05 07:38:56;;;;;;;13.23;9.93;;;;;;;19.22;100.00;102132.75;5273559;28;20160;-86
2023/06/05 07:41:30;;;;;;;10.75;9.65;;;;;;;19.33;100.00;102122.59;5275052;28;20109;-89
2023/06/05 07:44:02;;;;;;;9.65;8.15;;;;;;;19.83;100.00;102127.00;5273203;28;20364;-87
2023/06/05 07:46:33;;;;;;;11.40;9.23;;;;;;;20.01;100.00;102130.31;5286542;28;20028;-87
2023/06/05 07:49:22;;;;;;;9.95;8.88;;;;;;;19.92;100.00;102134.06;5279200;28;20515;-88
2023/06/05 07:52:00;;;;;;;10.63;8.10;;;;;;;20.33;100.00;102141.22;5288304;28;20036;-87
2023/06/05 07:54:31;;;;;;;11.73;8.65;;;;;;;20.31;100.00;102132.41;5293457;28;20031;-88
2023/06/05 07:57:10;;;;;;;10.20;7.97;;;;;;;20.53;100.00;102137.06;5292469;28;20035;-90
2023/06/05 07:59:46;;;;;;;12.70;8.20;;;;;;;20.70;100.00;102129.69;5294357;28;20141;-88
2023/06/05 08:02:18;;;;;;;11.85;8.43;;;;;;;21.04;100.00;102135.78;5304493;28;20047;-86
2023/06/05 08:04:49;;;;;;;11.15;8.07;;;;;;;21.04;100.00;102130.34;5291320;28;20043;-91
2023/06/05 08:07:21;;;;;;;11.65;8.23;;;;;;;20.83;100.00;102128.25;5295157;28;20472;-85
2023/06/05 08:09:52;;;;;;;9.95;7.80;;;;;;;21.09;100.00;102126.06;5304437;28;20031;-86
2023/06/05 08:12:24;;;;;;;10.23;8.00;;;;;;;21.24;100.00;102133.41;5288099;28;20036;-87
2023/06/05 08:15:00;;;;;;;11.15;7.63;;;;;;;21.50;100.00;102125.75;5275222;28;20363;-87
2023/06/05 08:17:31;;;;;;;12.98;7.50;;;;;;;21.68;100.00;102124.56;5278682;28;20082;-86
2023/06/05 08:20:05;;;;;;;10.15;7.00;;;;;;;21.63;100.00;102125.09;5276839;28;20039;-86
2023/06/05 08:22:39;;;;;;;8.68;6.97;;;;;;;22.21;100.00;102119.91;5277913;28;20441;-87
2023/06/05 08:25:17;;;;;;;9.82;7.13;;;;;;;22.23;100.00;102117.84;5272475;28;20069;-89
2023/06/05 08:27:49;;;;;;;9.13;6.53;;;;;;;22.42;100.00;102110.16;5274450;28;20040;-88
2023/06/05 08:30:20;;;;;;;12.13;6.68;;;;;;;22.33;100.00;102108.56;5275542;28;20056;-86
2023/06/05 08:32:57;;;;;;;10.38;6.35;;;;;;;22.70;100.00;102107.53;5276494;28;20028;-86
2023/06/05 08:35:29;;;;;;;10.07;5.90;;;;;;;22.83;100.00;102109.56;5273344;28;20409;-89
2023/06/05 08:38:03;;;;;;;11.70;6.68;;;;;;;22.98;100.00;102104.06;5276203;28;20028;-87
2023/06/05 08:40:36;;;;;;;10.45;7.22;;;;;;;23.01;100.00;102098.25;5278415;28;20070;-88
2023/06/05 08:43:07;;;;;;;13.68;7.07;;;;;;;23.36;100.00;102095.66;5268948;28;20482;-85
2023/06/05 08:45:41;;;;;;;8.93;6.82;;;;;;;23.48;100.00;102090.50;5272289;28;20574;-88
2023/06/05 08:48:15;;;;;;;10.15;5.80;;;;;;;23.75;100.00;102091.50;5275934;28;20093;-86
2023/06/05 08:50:48;;;;;;;11.27;6.45;;;;;;;24.02;100.00;102092.56;5265211;28;20036;-87
2023/06/05 08:53:20;;;;;;;9.65;6.75;;;;;;;23.96;100.00;102093.34;5268820;28;20039;-86
2023/06/05 08:55:54;;;;;;;13.52;7.53;;;;;;;23.91;100.00;102093.97;5273729;28;20029;-86
2023/06/05 08:58:26;;;;;;;9.32;6.57;;;;;;;24.19;100.00;102109.38;5271732;28;20167;-85
2023/06/05 09:00:58;;;;;;;8.13;6.20;;;;;;;24.22;100.00;102094.53;5273175;28;20037;-86
2023/06/05 09:03:32;;;;;;;8.35;6.45;;;;;;;24.34;100.00;102098.34;5272172;28;20418;-88
2023/06/05 09:06:04;;;;;;;8.05;6.32;;;;;;;24.12;100.00;102095.75;5264472;28;20024;-86
2023/06/05 09:08:35;;;;;;;10.27;7.25;;;;;;;24.19;100.00;102095.75;5266433;28;20036;-86
2023/06/05 09:11:29;;;;;;;13.48;6.93;;;;;;;24.64;100.00;102100.78;5268545;28;20047;-87
2023/06/05 09:14:04;;;;;;;12.95;6.57;;;;;;;24.84;100.00;102100.81;5268006;28;20028;-85
2023/06/05 09:16:37;;;;;;;9.88;6.00;;;;;;;24.58;100.00;102098.88;5265666;28;20067;-86
2023/06/05 09:19:11;;;;;;;8.32;5.70;;;;;;;24.85;100.00;102095.16;5269840;28;20096;-86
2023/06/05 09:21:53;;;;;;;8.02;5.47;;;;;;;25.28;100.00;102083.03;5264444;28;20066;-87
2023/06/05 09:24:25;;;;;;;9.25;5.88;;;;;;;25.38;100.00;102088.91;5260820;28;20029;-85
2023/06/05 09:27:00;;;;;;;8.52;5.90;;;;;;;25.56;100.00;102087.41;5269145;28;20481;-86
2023/06/05 09:29:34;;;;;;;9.75;5.35;;;;;;;25.74;100.00;102090.34;5282714;28;20032;-85
2023/06/05 09:32:19;;;;;;;9.68;6.47;;;;;;;26.18;100.00;102082.47;5266819;28;20020;-88
2023/06/05 09:35:01;;;;;;;8.70;6.00;;;;;;;26.18;99.51;102079.72;5264697;28;20529;-87
2023/06/05 09:37:37;;;;;;;8.05;5.05;;;;;;;26.45;99.11;102085.06;5268073;28;20772;-85
2023/06/05 09:40:14;;;;;;;13.02;6.25;;;;;;;26.54;96.91;102091.94;5271859;28;20040;-86
2023/06/05 09:42:47;;;;;;;9.27;5.38;;;;;;;26.90;96.66;102080.38;5272477;28;20059;-89
2023/06/05 09:45:18;;;;;;;9.88;5.15;;;;;;;26.77;94.43;102078.59;5265434;28;20024;-86
2023/06/05 09:47:49;;;;;;;8.02;4.80;;;;;;;27.22;93.15;102074.03;5270525;28;20512;-86
2023/06/05 09:50:26;;;;;;;8.15;5.30;;;;;;;27.13;90.05;102082.50;5271084;28;20290;-86
2023/06/05 09:52:59;;;;;;;8.18;4.57;;;;;;;27.42;91.70;102082.94;5268637;28;20032;-87
2023/06/05 09:55:31;;;;;;;7.13;4.93;;;;;;;27.39;89.21;102085.28;5272257;28;20528;-86
2023/06/05 09:58:11;;;;;;;12.93;4.70;;;;;;;27.58;88.43;102081.53;5268966;28;20324;-85
2023/06/05 10:00:44;;;;;;;7.75;4.57;;;;;;;27.59;86.79;102079.59;5266860;28;20032;-86
2023/06/05 10:03:19;;;;;;;7.43;4.32;;;;;;;27.93;84.56;102075.47;5283090;28;20443;-86
2023/06/05 10:05:50;;;;;;;10.50;5.28;;;;;;;27.79;83.07;102079.38;5269128;28;20031;-86
2023/06/05 10:08:22;;;;;;;6.80;4.45;;;;;;;28.14;83.86;102076.06;5264856;28;20611;-88
2023/06/05 10:10:53;;;;;;;7.30;4.20;;;;;;;28.34;82.84;102073.06;5266154;28;20784;-87
2023/06/05 10:13:27;;;;;;;7.60;4.00;;;;;;;28.51;82.28;102070.47;5264683;28;20028;-86
2023/06/05 10:15:59;;;;;;;8.98;5.03;;;;;;;27.95;79.58;102065.13;5269165;28;20436;-85
2023/06/05 10:18:32;;;;;;;8.73;5.10;;;;;;;28.16;78.61;102060.22;5273690;28;20409;-85
2023/06/05 10:21:04;;;;;;;9.65;5.00;;;;;;;28.26;78.63;102061.34;5282826;28;20028;-86
2023/06/05 10:23:36;;;;;;;7.57;4.47;;;;;;;28.11;78.81;102060.91;5266691;28;20758;-85
2023/06/05 10:26:22;;;;;;;9.35;4.93;;;;;;;28.16;80.45;102063.78;5270647;28;20037;-86
2023/06/05 10:29:25;;;;;;;5.60;4.78;;;;;;;28.67;78.15;102051.50;5272320;28;20246;-85
2023/06/05 10:32:03;;;;;;;9.48;4.30;;;;;;;28.72;77.46;102053.53;5272584;28;20067;-87
2023/06/05 10:34:49;;;;;;;10.00;3.92;;;;;;;29.08;79.47;102064.56;5274613;28;20031;-85
2023/06/05 10:37:43;;;;;;;11.95;5.10;;;;;;;29.31;78.17;102050.03;5273671;28;20033;-86
2023/06/05 10:40:16;;;;;;;8.75;4.22;;;;;;;29.17;76.99;102052.19;5270437;28;20365;-87
2023/06/05 10:42:47;;;;;;;9.48;4.90;;;;;;;28.96;73.48;102053.56;5269508;28;20047;-85
2023/06/05 10:45:32;;;;;;;7.05;3.80;;;;;;;29.86;75.33;102052.41;5271586;28;20428;-86
2023/06/05 10:48:03;;;;;;;9.98;4.63;;;;;;;29.65;71.92;102059.34;5273315;28;20032;-87
2023/06/05 10:50:34;;;;;;;6.72;4.50;;;;;;;29.79;71.97;102062.69;5289157;28;20587;-86
2023/06/05 10:53:06;;;;;;;7.05;4.47;;;;;;;29.70;71.26;102053.09;5280635;28;20036;-87
2023/06/05 10:55:42;;;;;;;8.68;4.10;;;;;;;29.83;70.24;102058.38;5294275;28;20051;-88
2023/06/05 10:58:13;;;;;;;6.13;3.35;;;;;;;30.25;72.21;102046.28;5298763;28;20029;-87
2023/06/05 11:01:18;;;;;;;5.90;4.03;;;;;;;30.19;70.69;102039.88;5291161;28;20036;-86
2023/06/05 11:03:54;;;;;;;6.80;4.18;;;;;;;29.96;68.38;102033.38;5276333;28;20077;-86
2023/06/05 11:06:26;;;;;;;8.60;3.90;;;;;;;30.11;68.65;102038.31;5284012;28;20017;-84
2023/06/05 11:09:14;;;;;;;6.85;3.85;;;;;;;30.50;69.63;102034.94;5272555;28;20502;-85
2023/06/05 11:11:57;;;;;;;8.18;4.22;;;;;;;30.80;67.04;102031.88;5271706;28;20068;-84
2023/06/05 11:14:48;;;;;;;7.47;3.78;;;;;;;30.97;66.07;102026.41;5271449;28;20139;-86
2023/06/05 11:17:30;;;;;;;6.18;3.95;;;;;;;30.86;65.06;102030.91;5277720;28;20509;-88
2023/06/05 11:20:09;;;;;;;7.63;4.00;;;;;;;30.75;64.66;102030.97;5280226;28;20024;-87
2023/06/05 11:22:53;;;;;;;10.07;4.32;;;;;;;30.92;64.62;102024.41;5274964;28;20139;-84
2023/06/05 11:25:26;;;;;;;11.35;4.00;;;;;;;30.87;61.32;102016.06;5267812;28;20401;-84
2023/06/05 11:28:01;;;;;;;8.10;3.92;;;;;;;30.54;61.49;102022.34;5270261;28;20055;-84
2023/06/05 11:30:43;;;;;;;6.82;4.00;;;;;;;31.02;63.70;102020.97;5277893;28;20114;-86
2023/06/05 11:33:15;;;;;;;7.95;3.60;;;;;;;31.00;61.70;102009.38;5285901;28;20024;-85
2023/06/05 11:35:48;;;;;;;8.80;3.80;;;;;;;30.95;59.76;102014.81;5287609;28;20044;-85
2023/06/05 11:38:22;;;;;;;7.47;3.58;;;;;;;31.04;60.52;102020.72;5281556;28;20146;-86
2023/06/05 11:40:55;;;;;;;6.25;4.13;;;;;;;30.80;60.31;102011.78;5283808;28;20024;-85
2023/06/05 11:43:26;;;;;;;6.53;3.58;;;;;;;31.01;59.42;102015.72;5271230;28;20085;-85